Babworth, United Kingdom
Current Conditions -  °F | °C
As of 4:20 PM on Monday 24 Nov 2014 (Local Time) from EGCN Reporting Station
Clear Clear  
Wind Chill: 43°   Ceiling: Unl
Heat Index: 43°   Visibility: 6mi
Dew Point: 39°   Wind: 3mph
Humidity: 87%   Direction: 270°W
Pressure: 30.33"   Gusts: NA
Location:  53.32°N, 0.98°W
Report Text: EGCN 241620Z 27003KT CAVOK 06/04 Q1027
Loading
Personal Weather Stations






























Interactive Weather Map New forecast layout! Learn more

10-Day Weather Forecast

Advertisements
Track Severe Weather on mobile